DIPPY EDDN-EDDG
Flight info
| Callsign | DIPPY |
|---|---|
| Flight time | 0h 53m |
| Altitude | 24000 |
| Route | SULUS1G SULUS L604 MASEK Z52 ARPEG Z850 HMM HMM1A |
| Aircraft | P180/L-SBDFGM3RWXY/LB1 |
Departure
| Time | 2026-04-22 13:56 |
|---|---|
| Airport | Nuremberg Airport (EDDN) |
Arrival
| Time | 2026-04-22 14:49 |
|---|---|
| Airport | Münster Osnabrück Airport (EDDG) |
| Time | Latitude | Longitude | Altitude | Speed | Heading |
|---|---|---|---|---|---|
| 2026-04-22 13:38 | 49.49631 | 11.07079 | 1019 ft | 0 kts | 189° |
| 2026-04-22 13:53 | 49.49625 | 11.07078 | 1019 ft | 3 kts | 189° |
| 2026-04-22 13:53 | 49.49598 | 11.07081 | 1020 ft | 5 kts | 148° |
| 2026-04-22 13:53 | 49.49584 | 11.07151 | 1020 ft | 8 kts | 96° |
| 2026-04-22 13:54 | 49.49624 | 11.07217 | 1019 ft | 12 kts | 7° |
| 2026-04-22 13:54 | 49.49691 | 11.07232 | 1017 ft | 7 kts | 5° |
| 2026-04-22 13:54 | 49.49732 | 11.07203 | 1016 ft | 10 kts | 305° |
| 2026-04-22 13:54 | 49.49753 | 11.07101 | 1015 ft | 9 kts | 311° |
| 2026-04-22 13:55 | 49.49802 | 11.07061 | 1015 ft | 7 kts | 337° |
| 2026-04-22 13:55 | 49.49854 | 11.07027 | 1015 ft | 13 kts | 337° |
| 2026-04-22 13:55 | 49.49917 | 11.07010 | 1017 ft | 5 kts | 4° |
| 2026-04-22 13:55 | 49.49948 | 11.07052 | 1018 ft | 9 kts | 100° |
| 2026-04-22 13:56 | 49.49880 | 11.07699 | 1021 ft | 122 kts | 98° |
| 2026-04-22 13:56 | 49.49711 | 11.09268 | 1629 ft | 163 kts | 95° |
| 2026-04-22 13:56 | 49.49548 | 11.11019 | 2940 ft | 157 kts | 95° |
| 2026-04-22 13:56 | 49.49387 | 11.12678 | 4300 ft | 158 kts | 95° |
| 2026-04-22 13:57 | 49.49223 | 11.14370 | 5527 ft | 161 kts | 96° |
| 2026-04-22 13:57 | 49.49075 | 11.16092 | 6675 ft | 163 kts | 90° |
| 2026-04-22 13:57 | 49.49197 | 11.17821 | 7715 ft | 164 kts | 76° |
| 2026-04-22 13:57 | 49.49590 | 11.19472 | 8724 ft | 166 kts | 62° |
| 2026-04-22 13:58 | 49.50219 | 11.20904 | 9334 ft | 166 kts | 50° |
| 2026-04-22 13:58 | 49.51103 | 11.22094 | 9671 ft | 170 kts | 39° |
| 2026-04-22 13:58 | 49.52042 | 11.23203 | 10068 ft | 170 kts | 40° |
| 2026-04-22 13:58 | 49.52983 | 11.24345 | 10559 ft | 173 kts | 40° |
| 2026-04-22 13:59 | 49.53921 | 11.25468 | 11436 ft | 170 kts | 39° |
| 2026-04-22 13:59 | 49.54867 | 11.26601 | 12215 ft | 173 kts | 40° |
| 2026-04-22 13:59 | 49.55818 | 11.27739 | 12708 ft | 176 kts | 39° |
| 2026-04-22 13:59 | 49.56783 | 11.28904 | 13163 ft | 176 kts | 39° |
| 2026-04-22 14:00 | 49.57755 | 11.30074 | 13730 ft | 178 kts | 39° |
| 2026-04-22 14:00 | 49.58798 | 11.31037 | 14426 ft | 180 kts | 18° |
| 2026-04-22 14:00 | 49.60062 | 11.31111 | 15007 ft | 187 kts | 354° |
| 2026-04-22 14:00 | 49.61285 | 11.30277 | 15582 ft | 196 kts | 336° |
| 2026-04-22 14:01 | 49.62478 | 11.29257 | 16111 ft | 198 kts | 337° |
| 2026-04-22 14:01 | 49.63694 | 11.28241 | 16646 ft | 200 kts | 337° |
| 2026-04-22 14:01 | 49.64919 | 11.27210 | 17189 ft | 202 kts | 337° |
| 2026-04-22 14:01 | 49.66159 | 11.26161 | 17708 ft | 204 kts | 337° |
| 2026-04-22 14:02 | 49.67412 | 11.25108 | 18215 ft | 206 kts | 337° |
| 2026-04-22 14:02 | 49.68660 | 11.24057 | 18703 ft | 207 kts | 338° |
| 2026-04-22 14:02 | 49.69936 | 11.22983 | 19144 ft | 209 kts | 337° |
| 2026-04-22 14:02 | 49.71211 | 11.21902 | 19580 ft | 210 kts | 337° |
| 2026-04-22 14:03 | 49.72495 | 11.20818 | 20036 ft | 211 kts | 337° |
| 2026-04-22 14:03 | 49.73785 | 11.19731 | 20450 ft | 212 kts | 338° |
| 2026-04-22 14:03 | 49.75083 | 11.18637 | 20888 ft | 213 kts | 337° |
| 2026-04-22 14:03 | 49.76386 | 11.17527 | 21321 ft | 214 kts | 337° |
| 2026-04-22 14:04 | 49.77696 | 11.16417 | 21756 ft | 215 kts | 337° |
| 2026-04-22 14:04 | 49.79017 | 11.15302 | 22205 ft | 217 kts | 337° |
| 2026-04-22 14:04 | 49.80326 | 11.14190 | 22641 ft | 218 kts | 337° |
| 2026-04-22 14:04 | 49.81661 | 11.13060 | 23104 ft | 219 kts | 337° |
| 2026-04-22 14:05 | 49.83003 | 11.11920 | 23559 ft | 220 kts | 337° |
| 2026-04-22 14:05 | 49.84296 | 11.10607 | 23980 ft | 228 kts | 322° |
| 2026-04-22 14:05 | 49.86569 | 11.06866 | 24288 ft | 254 kts | 320° |
| 2026-04-22 14:06 | 49.87854 | 11.04835 | 24299 ft | 273 kts | 320° |
| 2026-04-22 14:06 | 49.89208 | 11.02651 | 24298 ft | 289 kts | 319° |
| 2026-04-22 14:06 | 49.90624 | 11.00340 | 24304 ft | 302 kts | 319° |
| 2026-04-22 14:06 | 49.92085 | 10.97978 | 24300 ft | 313 kts | 319° |
| 2026-04-22 14:07 | 49.93637 | 10.95474 | 24295 ft | 322 kts | 318° |
| 2026-04-22 14:07 | 49.95180 | 10.92965 | 24300 ft | 329 kts | 318° |
| 2026-04-22 14:07 | 49.96776 | 10.90377 | 24308 ft | 334 kts | 318° |
| 2026-04-22 14:07 | 49.98398 | 10.87743 | 24309 ft | 339 kts | 318° |
| 2026-04-22 14:08 | 50.00035 | 10.85082 | 24300 ft | 343 kts | 318° |
| 2026-04-22 14:08 | 50.01696 | 10.82382 | 24308 ft | 346 kts | 318° |
| 2026-04-22 14:08 | 50.03367 | 10.79655 | 24316 ft | 349 kts | 318° |
| 2026-04-22 14:08 | 50.05048 | 10.76919 | 24315 ft | 351 kts | 318° |
| 2026-04-22 14:09 | 50.06739 | 10.74157 | 24317 ft | 353 kts | 317° |
| 2026-04-22 14:09 | 50.08432 | 10.71381 | 24317 ft | 354 kts | 317° |
| 2026-04-22 14:09 | 50.10085 | 10.68588 | 24316 ft | 355 kts | 316° |
| 2026-04-22 14:09 | 50.11736 | 10.65713 | 24319 ft | 356 kts | 316° |
| 2026-04-22 14:10 | 50.13409 | 10.62872 | 24315 ft | 356 kts | 317° |
| 2026-04-22 14:10 | 50.15107 | 10.60046 | 24316 ft | 357 kts | 317° |
| 2026-04-22 14:10 | 50.16788 | 10.57178 | 24293 ft | 357 kts | 316° |
| 2026-04-22 14:10 | 50.18456 | 10.54298 | 24302 ft | 358 kts | 316° |
| 2026-04-22 14:11 | 50.20143 | 10.51433 | 24300 ft | 358 kts | 317° |
| 2026-04-22 14:11 | 50.21837 | 10.48577 | 24294 ft | 359 kts | 317° |
| 2026-04-22 14:11 | 50.23516 | 10.45694 | 24300 ft | 359 kts | 316° |
| 2026-04-22 14:11 | 50.25200 | 10.42798 | 24300 ft | 359 kts | 316° |
| 2026-04-22 14:12 | 50.26871 | 10.39952 | 24297 ft | 359 kts | 316° |
| 2026-04-22 14:12 | 50.28558 | 10.37060 | 24298 ft | 360 kts | 316° |
| 2026-04-22 14:12 | 50.30243 | 10.34154 | 24300 ft | 360 kts | 316° |
| 2026-04-22 14:12 | 50.31933 | 10.31267 | 24300 ft | 360 kts | 317° |
| 2026-04-22 14:13 | 50.33620 | 10.28371 | 24305 ft | 360 kts | 316° |
| 2026-04-22 14:13 | 50.35306 | 10.25455 | 24306 ft | 360 kts | 316° |
| 2026-04-22 14:13 | 50.36989 | 10.22550 | 24306 ft | 360 kts | 316° |
| 2026-04-22 14:13 | 50.38681 | 10.19648 | 24301 ft | 360 kts | 316° |
| 2026-04-22 14:14 | 50.40338 | 10.16779 | 24303 ft | 360 kts | 316° |
| 2026-04-22 14:14 | 50.42014 | 10.13864 | 24304 ft | 359 kts | 316° |
| 2026-04-22 14:14 | 50.43704 | 10.10953 | 24304 ft | 359 kts | 316° |
| 2026-04-22 14:14 | 50.45386 | 10.08047 | 24310 ft | 360 kts | 316° |
| 2026-04-22 14:15 | 50.47060 | 10.05128 | 24309 ft | 360 kts | 316° |
| 2026-04-22 14:15 | 50.48736 | 10.02212 | 24311 ft | 360 kts | 316° |
| 2026-04-22 14:15 | 50.50420 | 9.99300 | 24313 ft | 360 kts | 316° |
| 2026-04-22 14:15 | 50.52100 | 9.96368 | 24313 ft | 360 kts | 316° |
| 2026-04-22 14:16 | 50.53755 | 9.93472 | 24310 ft | 360 kts | 316° |
| 2026-04-22 14:16 | 50.55435 | 9.90543 | 24314 ft | 361 kts | 316° |
| 2026-04-22 14:16 | 50.57117 | 9.87621 | 24315 ft | 361 kts | 316° |
| 2026-04-22 14:16 | 50.58588 | 9.84393 | 24311 ft | 368 kts | 300° |
| 2026-04-22 14:17 | 50.59567 | 9.80657 | 24297 ft | 369 kts | 296° |
| 2026-04-22 14:17 | 50.60618 | 9.76987 | 24314 ft | 367 kts | 300° |
| 2026-04-22 14:17 | 50.61750 | 9.73377 | 24315 ft | 367 kts | 300° |
| 2026-04-22 14:17 | 50.62810 | 9.69712 | 24313 ft | 369 kts | 297° |
| 2026-04-22 14:18 | 50.63811 | 9.65994 | 24316 ft | 369 kts | 297° |
| 2026-04-22 14:18 | 50.64867 | 9.62304 | 24315 ft | 368 kts | 299° |
| 2026-04-22 14:18 | 50.65963 | 9.58661 | 24316 ft | 368 kts | 299° |
| 2026-04-22 14:18 | 50.67011 | 9.55025 | 24318 ft | 369 kts | 297° |
| 2026-04-22 14:19 | 50.68031 | 9.51314 | 24318 ft | 369 kts | 297° |
| 2026-04-22 14:19 | 50.69081 | 9.47621 | 24318 ft | 369 kts | 298° |
| 2026-04-22 14:19 | 50.70159 | 9.43956 | 24318 ft | 369 kts | 298° |
| 2026-04-22 14:19 | 50.71210 | 9.40256 | 24318 ft | 369 kts | 297° |
| 2026-04-22 14:20 | 50.73295 | 9.32853 | 24323 ft | 369 kts | 298° |
| 2026-04-22 14:20 | 50.74356 | 9.29165 | 24324 ft | 369 kts | 298° |
| 2026-04-22 14:20 | 50.75397 | 9.25459 | 24323 ft | 369 kts | 297° |
| 2026-04-22 14:21 | 50.77485 | 9.18042 | 24322 ft | 369 kts | 298° |
| 2026-04-22 14:21 | 50.78537 | 9.14350 | 24322 ft | 369 kts | 298° |
| 2026-04-22 14:22 | 50.80595 | 9.06951 | 24328 ft | 369 kts | 298° |
| 2026-04-22 14:22 | 50.81643 | 9.03244 | 24327 ft | 369 kts | 298° |
| 2026-04-22 14:22 | 50.83716 | 8.95817 | 24327 ft | 369 kts | 297° |
| 2026-04-22 14:23 | 50.84746 | 8.92105 | 24327 ft | 369 kts | 298° |
| 2026-04-22 14:23 | 50.85792 | 8.88389 | 24326 ft | 369 kts | 298° |
| 2026-04-22 14:23 | 50.86830 | 8.84671 | 24326 ft | 369 kts | 297° |
| 2026-04-22 14:23 | 50.87851 | 8.80940 | 24327 ft | 372 kts | 297° |
| 2026-04-22 14:24 | 50.88885 | 8.77198 | 24327 ft | 371 kts | 298° |
| 2026-04-22 14:24 | 50.89937 | 8.73458 | 24327 ft | 370 kts | 298° |
| 2026-04-22 14:24 | 50.90969 | 8.69718 | 24328 ft | 370 kts | 297° |
| 2026-04-22 14:24 | 50.91989 | 8.65966 | 24325 ft | 370 kts | 297° |
| 2026-04-22 14:25 | 50.93007 | 8.62274 | 24324 ft | 370 kts | 298° |
| 2026-04-22 14:25 | 50.94044 | 8.58548 | 24324 ft | 370 kts | 297° |
| 2026-04-22 14:25 | 50.95070 | 8.54815 | 24324 ft | 369 kts | 297° |
| 2026-04-22 14:25 | 50.96085 | 8.51064 | 24324 ft | 369 kts | 297° |
| 2026-04-22 14:26 | 50.97104 | 8.47328 | 24323 ft | 369 kts | 298° |
| 2026-04-22 14:26 | 50.98136 | 8.43598 | 24323 ft | 369 kts | 298° |
| 2026-04-22 14:26 | 50.99158 | 8.39857 | 24324 ft | 370 kts | 297° |
| 2026-04-22 14:26 | 51.00169 | 8.36091 | 24323 ft | 370 kts | 297° |
| 2026-04-22 14:27 | 51.01346 | 8.32495 | 24312 ft | 363 kts | 311° |
| 2026-04-22 14:27 | 51.03169 | 8.29829 | 24315 ft | 354 kts | 329° |
| 2026-04-22 14:27 | 51.05322 | 8.28043 | 24318 ft | 347 kts | 342° |
| 2026-04-22 14:27 | 51.07555 | 8.26561 | 24320 ft | 348 kts | 341° |
| 2026-04-22 14:28 | 51.09020 | 8.25512 | 24321 ft | 348 kts | 340° |
| 2026-04-22 14:28 | 51.11221 | 8.23911 | 24323 ft | 348 kts | 340° |
| 2026-04-22 14:28 | 51.13443 | 8.22370 | 24323 ft | 348 kts | 341° |
| 2026-04-22 14:28 | 51.16385 | 8.20352 | 24329 ft | 347 kts | 341° |
| 2026-04-22 14:29 | 51.17883 | 8.19285 | 24326 ft | 348 kts | 340° |
| 2026-04-22 14:29 | 51.20064 | 8.17717 | 24150 ft | 350 kts | 340° |
| 2026-04-22 14:29 | 51.22278 | 8.16168 | 23741 ft | 337 kts | 341° |
| 2026-04-22 14:29 | 51.24374 | 8.14715 | 23304 ft | 327 kts | 341° |
| 2026-04-22 14:30 | 51.26432 | 8.13252 | 22854 ft | 320 kts | 341° |
| 2026-04-22 14:30 | 51.28446 | 8.11815 | 22398 ft | 313 kts | 341° |
| 2026-04-22 14:30 | 51.30425 | 8.10430 | 21959 ft | 308 kts | 341° |
| 2026-04-22 14:30 | 51.32374 | 8.09061 | 21535 ft | 304 kts | 341° |
| 2026-04-22 14:31 | 51.34293 | 8.07691 | 21120 ft | 300 kts | 341° |
| 2026-04-22 14:31 | 51.36189 | 8.06344 | 20715 ft | 297 kts | 341° |
| 2026-04-22 14:31 | 51.38068 | 8.05014 | 20302 ft | 294 kts | 341° |
| 2026-04-22 14:31 | 51.39904 | 8.03713 | 20234 ft | 282 kts | 341° |
| 2026-04-22 14:32 | 51.41655 | 8.02462 | 20233 ft | 269 kts | 341° |
| 2026-04-22 14:32 | 51.43336 | 8.01262 | 20228 ft | 260 kts | 342° |
| 2026-04-22 14:32 | 51.44964 | 8.00111 | 20226 ft | 252 kts | 342° |
| 2026-04-22 14:32 | 51.46545 | 7.98984 | 20221 ft | 246 kts | 342° |
| 2026-04-22 14:33 | 51.48092 | 7.97881 | 20214 ft | 241 kts | 342° |
| 2026-04-22 14:33 | 51.49614 | 7.96799 | 20211 ft | 237 kts | 342° |
| 2026-04-22 14:33 | 51.51110 | 7.95728 | 20206 ft | 234 kts | 342° |
| 2026-04-22 14:33 | 51.52592 | 7.94673 | 20201 ft | 232 kts | 342° |
| 2026-04-22 14:34 | 51.54079 | 7.93611 | 20013 ft | 237 kts | 342° |
| 2026-04-22 14:34 | 51.55591 | 7.92538 | 19734 ft | 245 kts | 341° |
| 2026-04-22 14:34 | 51.57166 | 7.91406 | 19423 ft | 252 kts | 341° |
| 2026-04-22 14:34 | 51.58786 | 7.90242 | 19088 ft | 258 kts | 341° |
| 2026-04-22 14:35 | 51.60442 | 7.89057 | 18748 ft | 263 kts | 341° |
| 2026-04-22 14:35 | 51.62120 | 7.87850 | 18376 ft | 266 kts | 341° |
| 2026-04-22 14:35 | 51.63815 | 7.86632 | 18016 ft | 268 kts | 341° |
| 2026-04-22 14:35 | 51.65517 | 7.85406 | 17661 ft | 269 kts | 340° |
| 2026-04-22 14:36 | 51.67228 | 7.84175 | 17306 ft | 269 kts | 340° |
| 2026-04-22 14:36 | 51.68943 | 7.82944 | 16956 ft | 270 kts | 340° |
| 2026-04-22 14:36 | 51.70658 | 7.81706 | 16601 ft | 270 kts | 340° |
| 2026-04-22 14:36 | 51.72378 | 7.80460 | 16245 ft | 271 kts | 340° |
| 2026-04-22 14:37 | 51.74096 | 7.79223 | 15893 ft | 271 kts | 340° |
| 2026-04-22 14:37 | 51.75799 | 7.77998 | 15542 ft | 271 kts | 340° |
| 2026-04-22 14:37 | 51.77523 | 7.76751 | 15186 ft | 271 kts | 340° |
| 2026-04-22 14:37 | 51.79244 | 7.75495 | 14819 ft | 272 kts | 340° |
| 2026-04-22 14:38 | 51.80971 | 7.74253 | 14479 ft | 271 kts | 340° |
| 2026-04-22 14:38 | 51.82696 | 7.73001 | 14120 ft | 271 kts | 339° |
| 2026-04-22 14:38 | 51.84392 | 7.71653 | 13737 ft | 273 kts | 331° |
| 2026-04-22 14:38 | 51.85723 | 7.69423 | 13380 ft | 280 kts | 308° |
| 2026-04-22 14:39 | 51.86532 | 7.66540 | 13009 ft | 284 kts | 290° |
| 2026-04-22 14:39 | 51.87072 | 7.63472 | 12652 ft | 284 kts | 289° |
| 2026-04-22 14:39 | 51.87650 | 7.60427 | 12282 ft | 283 kts | 290° |
| 2026-04-22 14:40 | 51.88811 | 7.54344 | 11543 ft | 283 kts | 289° |
| 2026-04-22 14:40 | 51.89379 | 7.51295 | 11172 ft | 283 kts | 289° |
| 2026-04-22 14:40 | 51.89952 | 7.48254 | 10803 ft | 282 kts | 289° |
| 2026-04-22 14:40 | 51.90518 | 7.45259 | 10435 ft | 282 kts | 289° |
| 2026-04-22 14:41 | 51.91091 | 7.42175 | 10047 ft | 281 kts | 289° |
| 2026-04-22 14:41 | 51.91652 | 7.39197 | 9678 ft | 280 kts | 289° |
| 2026-04-22 14:41 | 51.92212 | 7.36191 | 9308 ft | 278 kts | 289° |
| 2026-04-22 14:41 | 51.92820 | 7.33219 | 8798 ft | 279 kts | 297° |
| 2026-04-22 14:42 | 51.94091 | 7.30914 | 8238 ft | 276 kts | 331° |
| 2026-04-22 14:42 | 51.95886 | 7.30148 | 7686 ft | 266 kts | 4° |
| 2026-04-22 14:42 | 51.97655 | 7.30791 | 7058 ft | 257 kts | 20° |
| 2026-04-22 14:42 | 51.99368 | 7.31574 | 6442 ft | 253 kts | 14° |
| 2026-04-22 14:43 | 52.01099 | 7.31903 | 5835 ft | 250 kts | 4° |
| 2026-04-22 14:43 | 52.02841 | 7.31707 | 5201 ft | 250 kts | 356° |
| 2026-04-22 14:43 | 52.04556 | 7.31696 | 4547 ft | 243 kts | 16° |
| 2026-04-22 14:43 | 52.05855 | 7.33213 | 4181 ft | 225 kts | 57° |
| 2026-04-22 14:44 | 52.06457 | 7.35442 | 4049 ft | 209 kts | 70° |
| 2026-04-22 14:44 | 52.06928 | 7.37644 | 3924 ft | 203 kts | 70° |
| 2026-04-22 14:44 | 52.07387 | 7.39816 | 3667 ft | 204 kts | 70° |
| 2026-04-22 14:44 | 52.07841 | 7.41993 | 3396 ft | 198 kts | 70° |
| 2026-04-22 14:45 | 52.08280 | 7.44031 | 3136 ft | 185 kts | 70° |
| 2026-04-22 14:45 | 52.08681 | 7.45948 | 2896 ft | 178 kts | 70° |
| 2026-04-22 14:45 | 52.09085 | 7.47829 | 2647 ft | 172 kts | 69° |
| 2026-04-22 14:45 | 52.09466 | 7.49639 | 2412 ft | 165 kts | 70° |
| 2026-04-22 14:46 | 52.09836 | 7.51376 | 2198 ft | 159 kts | 69° |
| 2026-04-22 14:46 | 52.10146 | 7.52870 | 2006 ft | 121 kts | 70° |
| 2026-04-22 14:46 | 52.10419 | 7.54140 | 1840 ft | 121 kts | 68° |
| 2026-04-22 14:46 | 52.10692 | 7.55411 | 1677 ft | 117 kts | 69° |
| 2026-04-22 14:47 | 52.10959 | 7.56671 | 1513 ft | 118 kts | 69° |
| 2026-04-22 14:47 | 52.11226 | 7.57937 | 1361 ft | 118 kts | 69° |
| 2026-04-22 14:47 | 52.11495 | 7.59170 | 1203 ft | 113 kts | 68° |
| 2026-04-22 14:47 | 52.11754 | 7.60360 | 1052 ft | 114 kts | 68° |
| 2026-04-22 14:48 | 52.11998 | 7.61571 | 894 ft | 110 kts | 70° |
| 2026-04-22 14:48 | 52.12258 | 7.62752 | 766 ft | 113 kts | 68° |
| 2026-04-22 14:48 | 52.12509 | 7.63936 | 655 ft | 109 kts | 70° |
| 2026-04-22 14:48 | 52.12753 | 7.65132 | 436 ft | 113 kts | 70° |
| 2026-04-22 14:49 | 52.13006 | 7.66327 | 298 ft | 111 kts | 70° |
| 2026-04-22 14:49 | 52.13251 | 7.67487 | 159 ft | 98 kts | 70° |
| 2026-04-22 14:49 | 52.13386 | 7.68115 | 161 ft | 20 kts | 71° |
| 2026-04-22 14:49 | 52.13366 | 7.68258 | 162 ft | 13 kts | 153° |
| 2026-04-22 14:50 | 52.13317 | 7.68286 | 161 ft | 2 kts | 160° |
| 2026-04-22 14:50 | 52.13269 | 7.68312 | 161 ft | 5 kts | 162° |
| 2026-04-22 14:50 | 52.13208 | 7.68345 | 159 ft | 13 kts | 162° |
| 2026-04-22 14:50 | 52.13146 | 7.68382 | 158 ft | 10 kts | 162° |
| 2026-04-22 14:51 | 52.13106 | 7.68426 | 158 ft | 7 kts | 111° |
| 2026-04-22 14:51 | 52.13103 | 7.68483 | 158 ft | 0 kts | 90° |
| 2026-04-22 14:51 | 52.13103 | 7.68495 | 158 ft | 6 kts | 90° |
| 2026-04-22 14:51 | 52.13103 | 7.68532 | 158 ft | 1 kts | 91° |
| 2026-04-22 14:52 | 52.13103 | 7.68582 | 158 ft | 9 kts | 90° |
| 2026-04-22 14:52 | 52.13102 | 7.68653 | 158 ft | 7 kts | 91° |
| 2026-04-22 14:52 | 52.13105 | 7.68739 | 158 ft | 10 kts | 73° |
| 2026-04-22 14:52 | 52.13125 | 7.68830 | 158 ft | 5 kts | 73° |
| 2026-04-22 14:53 | 52.13141 | 7.68905 | 158 ft | 10 kts | 71° |
| 2026-04-22 14:53 | 52.13132 | 7.68947 | 158 ft | 4 kts | 192° |
| 2026-04-22 14:53 | 52.13111 | 7.68927 | 158 ft | 3 kts | 212° |
| 2026-04-22 14:53 | 52.13088 | 7.68902 | 158 ft | 4 kts | 214° |